createdAt,value
2019-01-19T21:12:33.748Z,13.23
2019-01-19T21:15:03.123Z,13.37
2019-01-19T21:17:32.457Z,14.33
2019-01-19T21:20:01.810Z,20.77
2019-01-19T21:22:31.168Z,20.47
2019-01-19T21:25:00.515Z,16.03
2019-01-19T21:27:30.177Z,17.17
2019-01-19T21:30:06.789Z,15.73
2019-01-19T21:32:38.150Z,14.90
2019-01-19T21:35:11.470Z,14.20
2019-01-19T21:37:42.275Z,14.07
2019-01-19T21:40:12.058Z,14.23
2019-01-19T21:42:41.739Z,13.70
2019-01-19T21:45:20.414Z,12.40
2019-01-19T21:47:55.405Z,12.13
2019-01-19T21:50:43.030Z,11.40
2019-01-19T21:53:17.659Z,11.80
2019-01-19T21:55:50.955Z,12.20
2019-01-19T21:58:20.562Z,11.53
2019-01-19T22:00:56.070Z,11.83
2019-01-19T22:03:25.960Z,11.30
2019-01-19T22:05:56.010Z,12.87
2019-01-19T22:08:25.702Z,11.70
2019-01-19T22:10:55.290Z,12.10
2019-01-19T22:13:25.108Z,12.23
2019-01-19T22:15:54.949Z,13.30
2019-01-19T22:18:24.629Z,12.70
2019-01-19T22:20:54.407Z,12.83
2019-01-19T22:23:24.094Z,13.03
2019-01-19T22:25:53.890Z,15.33
2019-01-19T22:28:23.525Z,13.70
2019-01-19T22:30:57.111Z,12.60
2019-01-19T22:33:27.254Z,14.20
2019-01-19T22:38:49.332Z,12.93
2019-01-19T22:41:53.498Z,13.77
2019-01-19T22:44:31.983Z,15.43
2019-01-19T22:47:29.133Z,15.30
2019-01-19T22:53:38.308Z,14.30
2019-01-19T22:56:08.208Z,14.23
2019-01-19T23:00:10.996Z,14.13
2019-01-19T23:03:00.213Z,11.80
2019-01-19T23:05:53.987Z,12.63
2019-01-19T23:08:47.549Z,11.67
2019-01-19T23:11:17.367Z,12.80
2019-01-19T23:13:48.983Z,13.37
2019-01-19T23:16:37.308Z,12.07
2019-01-19T23:19:08.996Z,13.00
2019-01-19T23:21:38.882Z,12.07
2019-01-19T23:24:09.884Z,12.27
